sensor_id;sensor_type;location;lat;lon;timestamp;temperature;humidity
34279;DHT22;20538;51.528;9.942;2022-09-14T00:00:27;16.90;99.90
34279;DHT22;20538;51.528;9.942;2022-09-14T00:02:53;16.90;99.90
34279;DHT22;20538;51.528;9.942;2022-09-14T00:05:19;16.90;99.90
34279;DHT22;20538;51.528;9.942;2022-09-14T00:07:45;16.80;99.90
34279;DHT22;20538;51.528;9.942;2022-09-14T00:10:10;16.90;99.90
34279;DHT22;20538;51.528;9.942;2022-09-14T00:12:36;16.80;99.90
34279;DHT22;20538;51.528;9.942;2022-09-14T00:15:02;16.70;99.90
34279;DHT22;20538;51.528;9.942;2022-09-14T00:17:28;16.60;99.90
34279;DHT22;20538;51.528;9.942;2022-09-14T00:19:54;16.60;99.90
34279;DHT22;20538;51.528;9.942;2022-09-14T00:22:19;16.50;99.90
34279;DHT22;20538;51.528;9.942;2022-09-14T00:24:45;16.50;99.90
34279;DHT22;20538;51.528;9.942;2022-09-14T00:27:10;16.50;99.90
34279;DHT22;20538;51.528;9.942;2022-09-14T00:29:36;16.50;99.90
34279;DHT22;20538;51.528;9.942;2022-09-14T00:32:02;16.40;99.90
34279;DHT22;20538;51.528;9.942;2022-09-14T00:34:28;16.30;99.90
34279;DHT22;20538;51.528;9.942;2022-09-14T00:36:54;16.20;99.90
34279;DHT22;20538;51.528;9.942;2022-09-14T00:39:21;16.20;99.90
34279;DHT22;20538;51.528;9.942;2022-09-14T00:41:52;16.20;99.90
34279;DHT22;20538;51.528;9.942;2022-09-14T00:46:46;16.20;99.90
34279;DHT22;20538;51.528;9.942;2022-09-14T00:49:18;16.20;99.90
34279;DHT22;20538;51.528;9.942;2022-09-14T00:54:37;16.20;99.90
34279;DHT22;20538;51.528;9.942;2022-09-14T00:57:03;16.20;99.90
34279;DHT22;20538;51.528;9.942;2022-09-14T00:59:32;16.20;99.90
34279;DHT22;20538;51.528;9.942;2022-09-14T01:01:59;16.10;99.90
34279;DHT22;20538;51.528;9.942;2022-09-14T01:04:25;16.10;99.90
34279;DHT22;20538;51.528;9.942;2022-09-14T01:12:29;16.10;99.90
34279;DHT22;20538;51.528;9.942;2022-09-14T01:18:03;16.00;99.90
34279;DHT22;20538;51.528;9.942;2022-09-14T01:20:46;16.00;99.90
34279;DHT22;20538;51.528;9.942;2022-09-14T01:23:41;16.00;99.90
34279;DHT22;20538;51.528;9.942;2022-09-14T01:31:54;15.90;99.90
34279;DHT22;20538;51.528;9.942;2022-09-14T01:37:25;15.80;99.90
34279;DHT22;20538;51.528;9.942;2022-09-14T01:39:59;15.90;99.90
34279;DHT22;20538;51.528;9.942;2022-09-14T01:42:26;15.90;99.90
34279;DHT22;20538;51.528;9.942;2022-09-14T01:44:56;15.80;99.90
34279;DHT22;20538;51.528;9.942;2022-09-14T01:50:28;15.80;99.90
34279;DHT22;20538;51.528;9.942;2022-09-14T01:55:57;15.70;99.90
34279;DHT22;20538;51.528;9.942;2022-09-14T01:58:34;15.70;99.90
34279;DHT22;20538;51.528;9.942;2022-09-14T02:01:03;15.60;99.90
34279;DHT22;20538;51.528;9.942;2022-09-14T02:03:40;15.50;99.90
34279;DHT22;20538;51.528;9.942;2022-09-14T02:06:09;15.50;99.90
34279;DHT22;20538;51.528;9.942;2022-09-14T02:08:36;15.50;99.90
34279;DHT22;20538;51.528;9.942;2022-09-14T02:11:02;15.50;99.90
34279;DHT22;20538;51.528;9.942;2022-09-14T02:13:28;15.50;99.90
34279;DHT22;20538;51.528;9.942;2022-09-14T02:15:54;15.50;99.90
34279;DHT22;20538;51.528;9.942;2022-09-14T02:18:20;15.60;99.90
34279;DHT22;20538;51.528;9.942;2022-09-14T02:21:13;15.60;99.90
34279;DHT22;20538;51.528;9.942;2022-09-14T02:23:40;15.70;99.90
34279;DHT22;20538;51.528;9.942;2022-09-14T02:26:06;15.70;99.90
34279;DHT22;20538;51.528;9.942;2022-09-14T02:28:32;15.60;99.90
34279;DHT22;20538;51.528;9.942;2022-09-14T02:31:11;15.50;99.90
34279;DHT22;20538;51.528;9.942;2022-09-14T02:38:55;15.50;99.90
34279;DHT22;20538;51.528;9.942;2022-09-14T02:41:43;15.50;99.90
34279;DHT22;20538;51.528;9.942;2022-09-14T02:44:34;15.50;99.90
34279;DHT22;20538;51.528;9.942;2022-09-14T02:47:27;15.50;99.90
34279;DHT22;20538;51.528;9.942;2022-09-14T02:50:06;15.50;99.90
34279;DHT22;20538;51.528;9.942;2022-09-14T02:52:40;15.60;99.90
34279;DHT22;20538;51.528;9.942;2022-09-14T02:55:12;15.60;99.90
34279;DHT22;20538;51.528;9.942;2022-09-14T02:57:58;15.60;99.90
34279;DHT22;20538;51.528;9.942;2022-09-14T03:00:24;15.40;99.90
34279;DHT22;20538;51.528;9.942;2022-09-14T03:02:51;15.40;99.90
34279;DHT22;20538;51.528;9.942;2022-09-14T03:05:17;15.40;99.90
34279;DHT22;20538;51.528;9.942;2022-09-14T03:07:42;15.40;99.90
34279;DHT22;20538;51.528;9.942;2022-09-14T03:10:08;15.40;99.90
34279;DHT22;20538;51.528;9.942;2022-09-14T03:12:34;15.40;99.90
34279;DHT22;20538;51.528;9.942;2022-09-14T03:14:59;15.40;99.90
34279;DHT22;20538;51.528;9.942;2022-09-14T03:17:25;15.50;99.90
34279;DHT22;20538;51.528;9.942;2022-09-14T03:19:51;15.60;99.90
34279;DHT22;20538;51.528;9.942;2022-09-14T03:22:17;15.50;99.90
34279;DHT22;20538;51.528;9.942;2022-09-14T03:24:42;15.50;99.90
34279;DHT22;20538;51.528;9.942;2022-09-14T03:27:08;15.50;99.90
34279;DHT22;20538;51.528;9.942;2022-09-14T03:29:33;15.40;99.90
34279;DHT22;20538;51.528;9.942;2022-09-14T03:31:59;15.40;99.90
34279;DHT22;20538;51.528;9.942;2022-09-14T03:34:25;15.30;99.90
34279;DHT22;20538;51.528;9.942;2022-09-14T03:36:51;15.20;99.90
34279;DHT22;20538;51.528;9.942;2022-09-14T03:39:16;15.20;99.90
34279;DHT22;20538;51.528;9.942;2022-09-14T03:41:42;15.20;99.90
34279;DHT22;20538;51.528;9.942;2022-09-14T03:44:08;15.30;99.90
34279;DHT22;20538;51.528;9.942;2022-09-14T03:46:34;15.20;99.90
34279;DHT22;20538;51.528;9.942;2022-09-14T03:49:00;15.30;99.90
34279;DHT22;20538;51.528;9.942;2022-09-14T03:51:25;15.30;99.90
34279;DHT22;20538;51.528;9.942;2022-09-14T03:53:51;15.10;99.90
34279;DHT22;20538;51.528;9.942;2022-09-14T03:56:19;15.10;99.90
34279;DHT22;20538;51.528;9.942;2022-09-14T03:58:46;15.10;99.90
34279;DHT22;20538;51.528;9.942;2022-09-14T04:01:19;15.00;99.90
34279;DHT22;20538;51.528;9.942;2022-09-14T04:03:45;15.00;99.90
34279;DHT22;20538;51.528;9.942;2022-09-14T04:06:12;14.90;99.90
34279;DHT22;20538;51.528;9.942;2022-09-14T04:08:39;14.90;99.90
34279;DHT22;20538;51.528;9.942;2022-09-14T04:13:33;14.70;99.90
34279;DHT22;20538;51.528;9.942;2022-09-14T04:15:59;14.70;99.90
34279;DHT22;20538;51.528;9.942;2022-09-14T04:18:25;14.70;99.90
34279;DHT22;20538;51.528;9.942;2022-09-14T04:23:21;14.80;99.90
34279;DHT22;20538;51.528;9.942;2022-09-14T04:25:47;14.80;99.90
34279;DHT22;20538;51.528;9.942;2022-09-14T04:28:13;14.90;99.90
34279;DHT22;20538;51.528;9.942;2022-09-14T04:30:38;15.00;99.90
34279;DHT22;20538;51.528;9.942;2022-09-14T04:33:04;14.90;99.90
34279;DHT22;20538;51.528;9.942;2022-09-14T04:35:29;15.00;99.90
34279;DHT22;20538;51.528;9.942;2022-09-14T04:37:55;15.00;99.90
34279;DHT22;20538;51.528;9.942;2022-09-14T04:40:20;14.90;99.90
34279;DHT22;20538;51.528;9.942;2022-09-14T04:42:46;14.90;99.90
34279;DHT22;20538;51.528;9.942;2022-09-14T04:45:12;15.00;99.90
34279;DHT22;20538;51.528;9.942;2022-09-14T04:47:38;15.00;99.90
34279;DHT22;20538;51.528;9.942;2022-09-14T04:50:04;14.80;99.90
34279;DHT22;20538;51.528;9.942;2022-09-14T04:52:30;14.80;99.90
34279;DHT22;20538;51.528;9.942;2022-09-14T04:54:56;14.80;99.90
34279;DHT22;20538;51.528;9.942;2022-09-14T04:57:21;14.80;99.90
34279;DHT22;20538;51.528;9.942;2022-09-14T04:59:47;14.90;99.90
34279;DHT22;20538;51.528;9.942;2022-09-14T05:02:13;14.80;99.90
34279;DHT22;20538;51.528;9.942;2022-09-14T05:04:38;14.80;99.90
34279;DHT22;20538;51.528;9.942;2022-09-14T05:07:04;14.80;99.90
34279;DHT22;20538;51.528;9.942;2022-09-14T05:09:30;14.90;99.90
34279;DHT22;20538;51.528;9.942;2022-09-14T05:11:55;14.90;99.90
34279;DHT22;20538;51.528;9.942;2022-09-14T05:14:21;14.90;99.90
34279;DHT22;20538;51.528;9.942;2022-09-14T05:16:47;15.00;99.90
34279;DHT22;20538;51.528;9.942;2022-09-14T05:19:14;15.00;99.90
34279;DHT22;20538;51.528;9.942;2022-09-14T05:21:41;14.90;99.90
34279;DHT22;20538;51.528;9.942;2022-09-14T05:24:11;14.90;99.90
34279;DHT22;20538;51.528;9.942;2022-09-14T05:26:37;15.00;99.90
34279;DHT22;20538;51.528;9.942;2022-09-14T05:29:03;15.00;99.90
34279;DHT22;20538;51.528;9.942;2022-09-14T05:31:30;15.00;99.90
34279;DHT22;20538;51.528;9.942;2022-09-14T05:33:56;15.00;99.90
34279;DHT22;20538;51.528;9.942;2022-09-14T05:36:22;15.10;99.90
34279;DHT22;20538;51.528;9.942;2022-09-14T05:38:48;15.00;99.90
34279;DHT22;20538;51.528;9.942;2022-09-14T05:41:14;15.00;99.90
34279;DHT22;20538;51.528;9.942;2022-09-14T05:43:41;15.00;99.90
34279;DHT22;20538;51.528;9.942;2022-09-14T05:46:10;15.10;99.90
34279;DHT22;20538;51.528;9.942;2022-09-14T05:48:37;14.90;99.90
34279;DHT22;20538;51.528;9.942;2022-09-14T05:51:12;14.90;99.90
34279;DHT22;20538;51.528;9.942;2022-09-14T05:53:39;14.80;99.90
34279;DHT22;20538;51.528;9.942;2022-09-14T05:56:09;14.70;99.90
34279;DHT22;20538;51.528;9.942;2022-09-14T05:58:36;14.70;99.90
34279;DHT22;20538;51.528;9.942;2022-09-14T06:01:10;14.70;99.90
34279;DHT22;20538;51.528;9.942;2022-09-14T06:03:36;14.70;99.90
34279;DHT22;20538;51.528;9.942;2022-09-14T06:06:03;14.80;99.90
34279;DHT22;20538;51.528;9.942;2022-09-14T06:08:29;14.80;99.90
34279;DHT22;20538;51.528;9.942;2022-09-14T06:10:55;14.80;99.90
34279;DHT22;20538;51.528;9.942;2022-09-14T06:13:21;14.80;99.90
34279;DHT22;20538;51.528;9.942;2022-09-14T06:15:48;14.80;99.90
34279;DHT22;20538;51.528;9.942;2022-09-14T06:18:13;14.70;99.90
34279;DHT22;20538;51.528;9.942;2022-09-14T06:20:39;14.60;99.90
34279;DHT22;20538;51.528;9.942;2022-09-14T06:23:08;14.50;99.90
34279;DHT22;20538;51.528;9.942;2022-09-14T06:25:33;14.60;99.90
34279;DHT22;20538;51.528;9.942;2022-09-14T06:27:59;14.50;99.90
34279;DHT22;20538;51.528;9.942;2022-09-14T06:30:24;14.40;99.90
34279;DHT22;20538;51.528;9.942;2022-09-14T06:32:51;14.40;99.90
34279;DHT22;20538;51.528;9.942;2022-09-14T06:35:17;14.30;99.90
34279;DHT22;20538;51.528;9.942;2022-09-14T06:37:43;14.30;99.90
34279;DHT22;20538;51.528;9.942;2022-09-14T06:40:09;14.40;99.90
34279;DHT22;20538;51.528;9.942;2022-09-14T06:42:34;14.50;99.90
34279;DHT22;20538;51.528;9.942;2022-09-14T06:45:00;14.70;99.90
34279;DHT22;20538;51.528;9.942;2022-09-14T06:47:31;14.70;99.90
34279;DHT22;20538;51.528;9.942;2022-09-14T06:49:56;14.40;99.90
34279;DHT22;20538;51.528;9.942;2022-09-14T06:52:23;14.30;99.90
34279;DHT22;20538;51.528;9.942;2022-09-14T06:54:49;14.40;99.90
34279;DHT22;20538;51.528;9.942;2022-09-14T06:57:14;14.40;99.90
34279;DHT22;20538;51.528;9.942;2022-09-14T06:59:40;14.40;99.90
34279;DHT22;20538;51.528;9.942;2022-09-14T07:02:07;14.30;99.90
34279;DHT22;20538;51.528;9.942;2022-09-14T07:04:35;14.30;99.90
34279;DHT22;20538;51.528;9.942;2022-09-14T07:07:01;14.40;99.90
34279;DHT22;20538;51.528;9.942;2022-09-14T07:09:27;14.20;99.90
34279;DHT22;20538;51.528;9.942;2022-09-14T07:11:52;14.30;99.90
34279;DHT22;20538;51.528;9.942;2022-09-14T07:14:19;14.20;99.90
34279;DHT22;20538;51.528;9.942;2022-09-14T07:16:44;14.20;99.90
34279;DHT22;20538;51.528;9.942;2022-09-14T07:19:11;14.30;99.90
34279;DHT22;20538;51.528;9.942;2022-09-14T07:21:37;14.10;99.90
34279;DHT22;20538;51.528;9.942;2022-09-14T07:24:04;14.20;99.90
34279;DHT22;20538;51.528;9.942;2022-09-14T07:26:32;14.00;99.90
34279;DHT22;20538;51.528;9.942;2022-09-14T07:29:03;14.00;99.90
34279;DHT22;20538;51.528;9.942;2022-09-14T07:31:38;14.20;99.90
34279;DHT22;20538;51.528;9.942;2022-09-14T07:34:04;14.30;99.90
34279;DHT22;20538;51.528;9.942;2022-09-14T07:36:32;14.40;99.90
34279;DHT22;20538;51.528;9.942;2022-09-14T07:38:58;14.50;99.90
34279;DHT22;20538;51.528;9.942;2022-09-14T07:41:26;14.50;99.90
34279;DHT22;20538;51.528;9.942;2022-09-14T07:43:57;14.60;99.90
34279;DHT22;20538;51.528;9.942;2022-09-14T07:46:25;14.50;99.90
34279;DHT22;20538;51.528;9.942;2022-09-14T07:48:59;14.50;99.90
34279;DHT22;20538;51.528;9.942;2022-09-14T07:51:26;14.50;99.90
34279;DHT22;20538;51.528;9.942;2022-09-14T07:53:53;14.50;99.90
34279;DHT22;20538;51.528;9.942;2022-09-14T07:56:19;14.40;99.90
34279;DHT22;20538;51.528;9.942;2022-09-14T07:58:46;14.30;99.90
34279;DHT22;20538;51.528;9.942;2022-09-14T08:01:14;14.40;99.90
34279;DHT22;20538;51.528;9.942;2022-09-14T08:03:43;14.40;99.90
34279;DHT22;20538;51.528;9.942;2022-09-14T08:06:20;14.30;99.90
34279;DHT22;20538;51.528;9.942;2022-09-14T08:08:48;14.40;99.90
34279;DHT22;20538;51.528;9.942;2022-09-14T08:11:16;14.50;99.90
34279;DHT22;20538;51.528;9.942;2022-09-14T08:13:44;14.60;99.90
34279;DHT22;20538;51.528;9.942;2022-09-14T08:16:11;14.60;99.90
34279;DHT22;20538;51.528;9.942;2022-09-14T08:18:38;14.70;99.90
34279;DHT22;20538;51.528;9.942;2022-09-14T08:21:09;14.80;99.90
34279;DHT22;20538;51.528;9.942;2022-09-14T08:23:36;14.90;99.90
34279;DHT22;20538;51.528;9.942;2022-09-14T08:26:07;14.80;99.90
34279;DHT22;20538;51.528;9.942;2022-09-14T08:28:34;14.70;99.90
34279;DHT22;20538;51.528;9.942;2022-09-14T08:31:15;14.60;99.90
34279;DHT22;20538;51.528;9.942;2022-09-14T08:33:43;14.80;99.90
34279;DHT22;20538;51.528;9.942;2022-09-14T08:36:12;14.70;99.90
34279;DHT22;20538;51.528;9.942;2022-09-14T08:38:38;14.60;99.90
34279;DHT22;20538;51.528;9.942;2022-09-14T08:44:36;14.30;99.90
34279;DHT22;20538;51.528;9.942;2022-09-14T08:47:12;14.50;99.90
34279;DHT22;20538;51.528;9.942;2022-09-14T08:52:45;14.60;99.90
34279;DHT22;20538;51.528;9.942;2022-09-14T09:00:52;14.40;99.90
34279;DHT22;20538;51.528;9.942;2022-09-14T09:06:21;14.40;99.90
34279;DHT22;20538;51.528;9.942;2022-09-14T09:09:08;14.50;99.90
34279;DHT22;20538;51.528;9.942;2022-09-14T09:11:41;14.70;99.90
34279;DHT22;20538;51.528;9.942;2022-09-14T09:17:02;14.90;99.90
34279;DHT22;20538;51.528;9.942;2022-09-14T09:19:43;14.80;99.90
34279;DHT22;20538;51.528;9.942;2022-09-14T09:22:15;14.80;99.90
34279;DHT22;20538;51.528;9.942;2022-09-14T09:24:48;14.70;99.90
34279;DHT22;20538;51.528;9.942;2022-09-14T09:27:15;14.40;99.90
34279;DHT22;20538;51.528;9.942;2022-09-14T09:29:42;14.30;99.90
34279;DHT22;20538;51.528;9.942;2022-09-14T09:32:22;14.40;99.90
34279;DHT22;20538;51.528;9.942;2022-09-14T09:34:49;14.30;99.90
34279;DHT22;20538;51.528;9.942;2022-09-14T09:37:17;14.40;99.90
34279;DHT22;20538;51.528;9.942;2022-09-14T09:39:43;14.60;99.90
34279;DHT22;20538;51.528;9.942;2022-09-14T09:42:26;14.80;99.90
34279;DHT22;20538;51.528;9.942;2022-09-14T09:44:59;14.80;99.90
34279;DHT22;20538;51.528;9.942;2022-09-14T09:47:36;14.80;99.90
34279;DHT22;20538;51.528;9.942;2022-09-14T09:52:52;14.80;99.90
34279;DHT22;20538;51.528;9.942;2022-09-14T09:55:19;14.70;99.90
34279;DHT22;20538;51.528;9.942;2022-09-14T09:57:46;14.80;99.90
34279;DHT22;20538;51.528;9.942;2022-09-14T10:02:49;14.90;99.90
34279;DHT22;20538;51.528;9.942;2022-09-14T10:05:42;14.80;99.90
34279;DHT22;20538;51.528;9.942;2022-09-14T10:08:18;14.70;99.90
34279;DHT22;20538;51.528;9.942;2022-09-14T10:10:44;14.60;99.90
34279;DHT22;20538;51.528;9.942;2022-09-14T10:13:31;14.50;99.90
34279;DHT22;20538;51.528;9.942;2022-09-14T10:16:17;14.60;99.90
34279;DHT22;20538;51.528;9.942;2022-09-14T10:18:49;14.50;99.90
34279;DHT22;20538;51.528;9.942;2022-09-14T10:21:20;14.50;99.90
34279;DHT22;20538;51.528;9.942;2022-09-14T10:24:05;14.70;99.90
34279;DHT22;20538;51.528;9.942;2022-09-14T10:26:40;14.60;99.90
34279;DHT22;20538;51.528;9.942;2022-09-14T10:31:47;14.40;99.90
34279;DHT22;20538;51.528;9.942;2022-09-14T10:34:17;14.50;99.90
34279;DHT22;20538;51.528;9.942;2022-09-14T10:36:52;14.40;99.90
34279;DHT22;20538;51.528;9.942;2022-09-14T10:39:42;14.50;99.90
34279;DHT22;20538;51.528;9.942;2022-09-14T10:42:39;14.20;99.90
34279;DHT22;20538;51.528;9.942;2022-09-14T10:48:05;13.90;99.90
34279;DHT22;20538;51.528;9.942;2022-09-14T10:50:42;14.00;99.90
34279;DHT22;20538;51.528;9.942;2022-09-14T11:03:57;14.20;99.90
34279;DHT22;20538;51.528;9.942;2022-09-14T11:11:57;14.50;99.90
34279;DHT22;20538;51.528;9.942;2022-09-14T11:14:43;14.60;99.90
34279;DHT22;20538;51.528;9.942;2022-09-14T11:20:37;14.50;99.90
34279;DHT22;20538;51.528;9.942;2022-09-14T11:26:14;14.70;99.90
34279;DHT22;20538;51.528;9.942;2022-09-14T11:31:48;14.60;99.90
34279;DHT22;20538;51.528;9.942;2022-09-14T11:34:20;14.40;99.90
34279;DHT22;20538;51.528;9.942;2022-09-14T11:36:57;14.50;99.90
34279;DHT22;20538;51.528;9.942;2022-09-14T11:39:28;14.50;99.90
34279;DHT22;20538;51.528;9.942;2022-09-14T11:42:14;14.50;99.90
34279;DHT22;20538;51.528;9.942;2022-09-14T11:44:43;14.50;99.90
34279;DHT22;20538;51.528;9.942;2022-09-14T11:47:19;14.50;99.90
34279;DHT22;20538;51.528;9.942;2022-09-14T11:49:51;14.60;99.90
34279;DHT22;20538;51.528;9.942;2022-09-14T11:52:22;14.80;99.90
34279;DHT22;20538;51.528;9.942;2022-09-14T11:54:49;14.80;99.90
34279;DHT22;20538;51.528;9.942;2022-09-14T11:57:30;15.10;99.90
34279;DHT22;20538;51.528;9.942;2022-09-14T12:00:02;15.00;99.90
34279;DHT22;20538;51.528;9.942;2022-09-14T12:20:38;15.70;99.90
34279;DHT22;20538;51.528;9.942;2022-09-14T12:23:28;15.80;99.90
34279;DHT22;20538;51.528;9.942;2022-09-14T13:05:16;15.10;99.90
34279;DHT22;20538;51.528;9.942;2022-09-14T13:07:43;15.10;99.90
34279;DHT22;20538;51.528;9.942;2022-09-14T13:10:22;15.40;99.90
34279;DHT22;20538;51.528;9.942;2022-09-14T13:12:48;15.40;99.90
34279;DHT22;20538;51.528;9.942;2022-09-14T13:15:22;15.30;99.90
34279;DHT22;20538;51.528;9.942;2022-09-14T13:17:58;15.30;99.90
34279;DHT22;20538;51.528;9.942;2022-09-14T13:20:25;15.20;99.90
34279;DHT22;20538;51.528;9.942;2022-09-14T13:22:51;15.20;99.90
34279;DHT22;20538;51.528;9.942;2022-09-14T13:25:36;15.20;99.90
34279;DHT22;20538;51.528;9.942;2022-09-14T13:28:11;15.30;99.90
34279;DHT22;20538;51.528;9.942;2022-09-14T13:30:38;15.40;99.90
34279;DHT22;20538;51.528;9.942;2022-09-14T13:33:12;15.50;99.90
34279;DHT22;20538;51.528;9.942;2022-09-14T13:35:45;15.50;99.90
34279;DHT22;20538;51.528;9.942;2022-09-14T13:38:26;15.60;99.90
34279;DHT22;20538;51.528;9.942;2022-09-14T13:41:28;15.60;99.90
34279;DHT22;20538;51.528;9.942;2022-09-14T13:43:47;15.70;99.90
34279;DHT22;20538;51.528;9.942;2022-09-14T13:46:14;15.30;99.90
34279;DHT22;20538;51.528;9.942;2022-09-14T13:48:41;15.40;99.90
34279;DHT22;20538;51.528;9.942;2022-09-14T13:51:09;15.30;99.90
34279;DHT22;20538;51.528;9.942;2022-09-14T13:53:48;15.30;99.90
34279;DHT22;20538;51.528;9.942;2022-09-14T13:56:34;15.40;99.90
34279;DHT22;20538;51.528;9.942;2022-09-14T14:01:41;15.40;99.90
34279;DHT22;20538;51.528;9.942;2022-09-14T14:04:31;15.50;99.90
34279;DHT22;20538;51.528;9.942;2022-09-14T14:07:23;15.50;99.90
34279;DHT22;20538;51.528;9.942;2022-09-14T14:14:59;15.40;99.90
34279;DHT22;20538;51.528;9.942;2022-09-14T14:17:31;15.40;99.90
34279;DHT22;20538;51.528;9.942;2022-09-14T14:25:44;15.50;99.90
34279;DHT22;20538;51.528;9.942;2022-09-14T14:28:28;15.50;99.90
34279;DHT22;20538;51.528;9.942;2022-09-14T14:30:55;15.50;99.90
34279;DHT22;20538;51.528;9.942;2022-09-14T14:33:22;15.50;99.90
34279;DHT22;20538;51.528;9.942;2022-09-14T14:35:49;15.30;99.90
34279;DHT22;20538;51.528;9.942;2022-09-14T14:38:19;15.30;99.90
34279;DHT22;20538;51.528;9.942;2022-09-14T14:40:47;15.30;99.90
34279;DHT22;20538;51.528;9.942;2022-09-14T14:43:24;15.30;99.90
34279;DHT22;20538;51.528;9.942;2022-09-14T14:45:53;15.20;99.90
34279;DHT22;20538;51.528;9.942;2022-09-14T14:48:19;15.20;99.90
34279;DHT22;20538;51.528;9.942;2022-09-14T14:50:45;15.30;99.90
34279;DHT22;20538;51.528;9.942;2022-09-14T14:53:12;15.20;99.90
34279;DHT22;20538;51.528;9.942;2022-09-14T14:55:38;15.30;99.90
34279;DHT22;20538;51.528;9.942;2022-09-14T14:58:09;15.30;99.90
34279;DHT22;20538;51.528;9.942;2022-09-14T15:00:37;15.30;99.90
34279;DHT22;20538;51.528;9.942;2022-09-14T15:03:03;15.20;99.90
34279;DHT22;20538;51.528;9.942;2022-09-14T15:05:28;15.30;99.90
34279;DHT22;20538;51.528;9.942;2022-09-14T15:07:55;15.40;99.90
34279;DHT22;20538;51.528;9.942;2022-09-14T15:10:23;15.50;99.90
34279;DHT22;20538;51.528;9.942;2022-09-14T15:12:49;15.50;99.90
34279;DHT22;20538;51.528;9.942;2022-09-14T15:15:21;15.50;99.90
34279;DHT22;20538;51.528;9.942;2022-09-14T15:17:48;15.50;99.90
34279;DHT22;20538;51.528;9.942;2022-09-14T15:20:14;15.60;99.90
34279;DHT22;20538;51.528;9.942;2022-09-14T15:22:41;15.60;99.90
34279;DHT22;20538;51.528;9.942;2022-09-14T15:25:08;15.50;99.90
34279;DHT22;20538;51.528;9.942;2022-09-14T15:27:34;15.50;99.90
34279;DHT22;20538;51.528;9.942;2022-09-14T15:30:00;15.50;99.90
34279;DHT22;20538;51.528;9.942;2022-09-14T15:32:26;15.40;99.90
34279;DHT22;20538;51.528;9.942;2022-09-14T15:34:51;15.40;99.90
34279;DHT22;20538;51.528;9.942;2022-09-14T15:37:18;15.40;99.90
34279;DHT22;20538;51.528;9.942;2022-09-14T15:39:43;15.30;99.90
34279;DHT22;20538;51.528;9.942;2022-09-14T15:42:10;15.20;99.90
34279;DHT22;20538;51.528;9.942;2022-09-14T15:44:35;15.30;99.90
34279;DHT22;20538;51.528;9.942;2022-09-14T15:47:01;15.30;99.90
34279;DHT22;20538;51.528;9.942;2022-09-14T15:49:27;15.20;99.90
34279;DHT22;20538;51.528;9.942;2022-09-14T15:51:55;15.00;99.90
34279;DHT22;20538;51.528;9.942;2022-09-14T15:54:22;15.10;99.90
34279;DHT22;20538;51.528;9.942;2022-09-14T15:56:50;15.20;99.90
34279;DHT22;20538;51.528;9.942;2022-09-14T15:59:17;15.20;99.90
34279;DHT22;20538;51.528;9.942;2022-09-14T16:01:43;15.20;99.90
34279;DHT22;20538;51.528;9.942;2022-09-14T16:04:09;15.10;99.90
34279;DHT22;20538;51.528;9.942;2022-09-14T16:06:34;15.20;99.90
34279;DHT22;20538;51.528;9.942;2022-09-14T16:09:02;15.20;99.90
34279;DHT22;20538;51.528;9.942;2022-09-14T16:11:28;15.10;99.90
34279;DHT22;20538;51.528;9.942;2022-09-14T16:13:53;15.00;99.90
34279;DHT22;20538;51.528;9.942;2022-09-14T16:16:20;15.10;99.90
34279;DHT22;20538;51.528;9.942;2022-09-14T16:18:46;15.00;99.90
34279;DHT22;20538;51.528;9.942;2022-09-14T16:21:17;14.90;99.90
34279;DHT22;20538;51.528;9.942;2022-09-14T16:23:45;14.90;99.90
34279;DHT22;20538;51.528;9.942;2022-09-14T16:26:14;14.80;99.90
34279;DHT22;20538;51.528;9.942;2022-09-14T16:28:42;14.80;99.90
34279;DHT22;20538;51.528;9.942;2022-09-14T16:31:16;14.90;99.90
34279;DHT22;20538;51.528;9.942;2022-09-14T16:33:44;15.00;99.90
34279;DHT22;20538;51.528;9.942;2022-09-14T16:36:13;15.00;99.90
34279;DHT22;20538;51.528;9.942;2022-09-14T16:38:39;15.00;99.90
34279;DHT22;20538;51.528;9.942;2022-09-14T16:41:05;15.00;99.90
34279;DHT22;20538;51.528;9.942;2022-09-14T16:43:32;14.90;99.90
34279;DHT22;20538;51.528;9.942;2022-09-14T16:46:07;14.90;99.90
34279;DHT22;20538;51.528;9.942;2022-09-14T16:48:35;14.90;99.90
34279;DHT22;20538;51.528;9.942;2022-09-14T16:51:03;14.90;99.90
34279;DHT22;20538;51.528;9.942;2022-09-14T16:53:31;14.80;99.90
34279;DHT22;20538;51.528;9.942;2022-09-14T16:56:05;14.70;99.90
34279;DHT22;20538;51.528;9.942;2022-09-14T16:58:34;14.70;99.90
34279;DHT22;20538;51.528;9.942;2022-09-14T17:03:36;14.60;99.90
34279;DHT22;20538;51.528;9.942;2022-09-14T17:06:10;14.60;99.90
34279;DHT22;20538;51.528;9.942;2022-09-14T17:08:37;14.70;99.90
34279;DHT22;20538;51.528;9.942;2022-09-14T17:11:03;14.70;99.90
34279;DHT22;20538;51.528;9.942;2022-09-14T17:13:32;14.70;99.90
34279;DHT22;20538;51.528;9.942;2022-09-14T17:16:03;14.70;99.90
34279;DHT22;20538;51.528;9.942;2022-09-14T17:18:29;14.60;99.90
34279;DHT22;20538;51.528;9.942;2022-09-14T17:20:58;14.60;99.90
34279;DHT22;20538;51.528;9.942;2022-09-14T17:23:24;14.50;99.90
34279;DHT22;20538;51.528;9.942;2022-09-14T17:25:50;14.40;99.90
34279;DHT22;20538;51.528;9.942;2022-09-14T17:28:18;14.40;99.90
34279;DHT22;20538;51.528;9.942;2022-09-14T17:30:44;14.40;99.90
34279;DHT22;20538;51.528;9.942;2022-09-14T17:33:10;14.30;99.90
34279;DHT22;20538;51.528;9.942;2022-09-14T17:35:39;14.30;99.90
34279;DHT22;20538;51.528;9.942;2022-09-14T17:38:09;14.20;99.90
34279;DHT22;20538;51.528;9.942;2022-09-14T17:40:35;14.20;99.90
34279;DHT22;20538;51.528;9.942;2022-09-14T17:43:00;14.10;99.90
34279;DHT22;20538;51.528;9.942;2022-09-14T17:45:26;14.10;99.90
34279;DHT22;20538;51.528;9.942;2022-09-14T17:47:52;14.10;99.90
34279;DHT22;20538;51.528;9.942;2022-09-14T17:50:17;14.20;99.90
34279;DHT22;20538;51.528;9.942;2022-09-14T17:52:44;14.30;99.90
34279;DHT22;20538;51.528;9.942;2022-09-14T17:55:09;14.20;99.90
34279;DHT22;20538;51.528;9.942;2022-09-14T17:57:35;14.30;99.90
34279;DHT22;20538;51.528;9.942;2022-09-14T18:00:04;14.20;99.90
34279;DHT22;20538;51.528;9.942;2022-09-14T18:02:30;14.30;99.90
34279;DHT22;20538;51.528;9.942;2022-09-14T18:04:56;14.30;99.90
34279;DHT22;20538;51.528;9.942;2022-09-14T18:07:22;14.30;99.90
34279;DHT22;20538;51.528;9.942;2022-09-14T18:09:47;14.30;99.90
34279;DHT22;20538;51.528;9.942;2022-09-14T18:12:13;14.20;99.90
34279;DHT22;20538;51.528;9.942;2022-09-14T18:14:40;14.20;99.90
34279;DHT22;20538;51.528;9.942;2022-09-14T18:17:06;14.20;99.90
34279;DHT22;20538;51.528;9.942;2022-09-14T18:19:31;14.20;99.90
34279;DHT22;20538;51.528;9.942;2022-09-14T18:21:57;14.30;99.90
34279;DHT22;20538;51.528;9.942;2022-09-14T18:24:23;14.20;99.90
34279;DHT22;20538;51.528;9.942;2022-09-14T18:26:49;14.20;99.90
34279;DHT22;20538;51.528;9.942;2022-09-14T18:29:17;14.20;99.90